sensor_id;sensor_type;location;lat;lon;timestamp;pressure;altitude;pressure_sealevel;temperature;humidity
80323;BME280;69636;52.372;13.610;2023-05-28T00:01:03;101941.69;;;10.25;70.54
80323;BME280;69636;52.372;13.610;2023-05-28T00:03:30;101934.66;;;10.46;68.75
80323;BME280;69636;52.372;13.610;2023-05-28T00:05:58;101934.28;;;10.50;68.77
80323;BME280;69636;52.372;13.610;2023-05-28T00:08:25;101925.75;;;10.36;69.94
80323;BME280;69636;52.372;13.610;2023-05-28T00:10:52;101925.75;;;10.36;69.08
80323;BME280;69636;52.372;13.610;2023-05-28T00:13:20;101927.09;;;10.30;69.90
80323;BME280;69636;52.372;13.610;2023-05-28T00:15:48;101921.66;;;10.20;70.25
80323;BME280;69636;52.372;13.610;2023-05-28T00:18:16;101917.78;;;10.02;71.81
80323;BME280;69636;52.372;13.610;2023-05-28T00:20:43;101922.13;;;9.92;71.80
80323;BME280;69636;52.372;13.610;2023-05-28T00:23:10;101920.09;;;9.84;71.70
80323;BME280;69636;52.372;13.610;2023-05-28T00:25:38;101917.28;;;9.64;73.24
80323;BME280;69636;52.372;13.610;2023-05-28T00:28:05;101918.97;;;9.65;72.55
80323;BME280;69636;52.372;13.610;2023-05-28T00:30:33;101915.88;;;10.27;70.29
80323;BME280;69636;52.372;13.610;2023-05-28T00:33:02;101915.59;;;10.18;70.59
80323;BME280;69636;52.372;13.610;2023-05-28T00:35:31;101914.03;;;9.71;72.97
80323;BME280;69636;52.372;13.610;2023-05-28T00:37:58;101916.09;;;9.90;71.28
80323;BME280;69636;52.372;13.610;2023-05-28T00:40:26;101917.91;;;9.78;72.71
80323;BME280;69636;52.372;13.610;2023-05-28T00:42:54;101921.97;;;9.49;73.97
80323;BME280;69636;52.372;13.610;2023-05-28T00:45:22;101912.09;;;9.51;73.58
80323;BME280;69636;52.372;13.610;2023-05-28T00:47:49;101915.38;;;9.77;71.84
80323;BME280;69636;52.372;13.610;2023-05-28T00:50:18;101909.38;;;9.86;71.91
80323;BME280;69636;52.372;13.610;2023-05-28T00:52:49;101912.25;;;9.61;73.27
80323;BME280;69636;52.372;13.610;2023-05-28T00:55:17;101910.50;;;9.37;74.46
80323;BME280;69636;52.372;13.610;2023-05-28T00:57:46;101915.50;;;9.18;75.32
80323;BME280;69636;52.372;13.610;2023-05-28T01:00:14;101912.34;;;9.13;75.74
80323;BME280;69636;52.372;13.610;2023-05-28T01:02:42;101912.00;;;9.06;75.64
80323;BME280;69636;52.372;13.610;2023-05-28T01:05:09;101912.25;;;9.14;75.08
80323;BME280;69636;52.372;13.610;2023-05-28T01:07:38;101905.19;;;9.26;74.60
80323;BME280;69636;52.372;13.610;2023-05-28T01:10:06;101904.91;;;9.07;75.23
80323;BME280;69636;52.372;13.610;2023-05-28T01:12:35;101906.72;;;9.17;75.19
80323;BME280;69636;52.372;13.610;2023-05-28T01:15:04;101907.59;;;9.29;74.74
80323;BME280;69636;52.372;13.610;2023-05-28T01:17:31;101904.78;;;9.19;74.82
80323;BME280;69636;52.372;13.610;2023-05-28T01:19:58;101903.16;;;8.95;75.80
80323;BME280;69636;52.372;13.610;2023-05-28T01:22:28;101896.25;;;8.81;76.64
80323;BME280;69636;52.372;13.610;2023-05-28T01:24:57;101906.44;;;8.74;76.66
80323;BME280;69636;52.372;13.610;2023-05-28T01:27:25;101899.69;;;8.70;76.97
80323;BME280;69636;52.372;13.610;2023-05-28T01:29:52;101896.84;;;8.84;75.95
80323;BME280;69636;52.372;13.610;2023-05-28T01:32:19;101897.41;;;9.01;74.95
80323;BME280;69636;52.372;13.610;2023-05-28T01:34:47;101905.59;;;8.74;76.48
80323;BME280;69636;52.372;13.610;2023-05-28T01:37:15;101901.16;;;8.74;76.24
80323;BME280;69636;52.372;13.610;2023-05-28T01:39:46;101898.78;;;8.82;75.80
80323;BME280;69636;52.372;13.610;2023-05-28T01:42:17;101899.91;;;8.67;76.58
80323;BME280;69636;52.372;13.610;2023-05-28T01:44:45;101901.03;;;8.76;76.03
80323;BME280;69636;52.372;13.610;2023-05-28T01:47:14;101892.16;;;8.88;74.96
80323;BME280;69636;52.372;13.610;2023-05-28T01:49:41;101893.75;;;8.91;74.89
80323;BME280;69636;52.372;13.610;2023-05-28T01:52:09;101898.78;;;8.59;76.62
80323;BME280;69636;52.372;13.610;2023-05-28T01:54:36;101891.34;;;8.40;77.33
80323;BME280;69636;52.372;13.610;2023-05-28T01:57:04;101895.13;;;8.48;77.34
80323;BME280;69636;52.372;13.610;2023-05-28T01:59:32;101893.53;;;8.46;76.80
80323;BME280;69636;52.372;13.610;2023-05-28T02:02:00;101891.41;;;8.51;76.69
80323;BME280;69636;52.372;13.610;2023-05-28T02:04:27;101895.81;;;8.27;77.86
80323;BME280;69636;52.372;13.610;2023-05-28T02:06:55;101894.97;;;8.13;78.75
80323;BME280;69636;52.372;13.610;2023-05-28T02:09:22;101892.75;;;8.07;78.86
80323;BME280;69636;52.372;13.610;2023-05-28T02:11:49;101878.63;;;8.45;76.81
80323;BME280;69636;52.372;13.610;2023-05-28T02:14:16;101885.53;;;8.59;76.05
80323;BME280;69636;52.372;13.610;2023-05-28T02:16:46;101878.06;;;8.76;74.92
80323;BME280;69636;52.372;13.610;2023-05-28T02:19:14;101881.56;;;8.53;76.38
80323;BME280;69636;52.372;13.610;2023-05-28T02:21:41;101885.78;;;8.19;78.46
80323;BME280;69636;52.372;13.610;2023-05-28T02:24:09;101890.66;;;8.12;78.11
80323;BME280;69636;52.372;13.610;2023-05-28T02:26:36;101881.88;;;8.12;78.51
80323;BME280;69636;52.372;13.610;2023-05-28T02:29:03;101889.41;;;8.05;78.65
80323;BME280;69636;52.372;13.610;2023-05-28T02:31:31;101879.34;;;8.10;78.42
80323;BME280;69636;52.372;13.610;2023-05-28T02:34:00;101886.88;;;7.91;80.13
80323;BME280;69636;52.372;13.610;2023-05-28T02:36:27;101877.06;;;7.93;79.22
80323;BME280;69636;52.372;13.610;2023-05-28T02:38:54;101879.53;;;8.07;78.14
80323;BME280;69636;52.372;13.610;2023-05-28T02:41:21;101888.59;;;7.92;79.51
80323;BME280;69636;52.372;13.610;2023-05-28T02:43:49;101886.38;;;7.86;79.36
80323;BME280;69636;52.372;13.610;2023-05-28T02:46:16;101886.16;;;7.89;79.42
80323;BME280;69636;52.372;13.610;2023-05-28T02:48:43;101885.03;;;7.68;79.81
80323;BME280;69636;52.372;13.610;2023-05-28T02:51:12;101889.78;;;7.63;80.21
80323;BME280;69636;52.372;13.610;2023-05-28T02:53:39;101890.16;;;7.82;78.97
80323;BME280;69636;52.372;13.610;2023-05-28T02:56:07;101893.34;;;7.87;78.74
80323;BME280;69636;52.372;13.610;2023-05-28T02:58:34;101891.00;;;7.95;78.14
80323;BME280;69636;52.372;13.610;2023-05-28T03:01:02;101886.06;;;7.65;79.74
80323;BME280;69636;52.372;13.610;2023-05-28T03:03:29;101892.34;;;7.52;80.10
80323;BME280;69636;52.372;13.610;2023-05-28T03:05:57;101888.72;;;7.78;79.50
80323;BME280;69636;52.372;13.610;2023-05-28T03:08:25;101890.69;;;7.87;79.51
80323;BME280;69636;52.372;13.610;2023-05-28T03:10:53;101893.56;;;7.84;79.43
80323;BME280;69636;52.372;13.610;2023-05-28T03:13:20;101890.16;;;7.95;78.55
80323;BME280;69636;52.372;13.610;2023-05-28T03:15:47;101903.22;;;8.22;77.61
80323;BME280;69636;52.372;13.610;2023-05-28T03:18:14;101899.84;;;8.20;77.44
80323;BME280;69636;52.372;13.610;2023-05-28T03:20:42;101894.25;;;8.11;77.72
80323;BME280;69636;52.372;13.610;2023-05-28T03:23:09;101896.50;;;8.05;78.13
80323;BME280;69636;52.372;13.610;2023-05-28T03:25:38;101884.44;;;8.01;78.52
80323;BME280;69636;52.372;13.610;2023-05-28T03:28:05;101889.75;;;7.88;78.96
80323;BME280;69636;52.372;13.610;2023-05-28T03:30:32;101885.97;;;7.79;80.30
80323;BME280;69636;52.372;13.610;2023-05-28T03:33:00;101888.22;;;8.09;78.84
80323;BME280;69636;52.372;13.610;2023-05-28T03:35:27;101887.59;;;8.06;78.93
80323;BME280;69636;52.372;13.610;2023-05-28T03:37:54;101892.84;;;8.31;77.96
80323;BME280;69636;52.372;13.610;2023-05-28T03:40:24;101890.16;;;8.44;77.24
80323;BME280;69636;52.372;13.610;2023-05-28T03:42:53;101885.81;;;8.43;77.81
80323;BME280;69636;52.372;13.610;2023-05-28T03:45:21;101883.31;;;8.29;78.46
80323;BME280;69636;52.372;13.610;2023-05-28T03:47:48;101891.28;;;8.16;79.50
80323;BME280;69636;52.372;13.610;2023-05-28T03:50:15;101880.75;;;7.91;81.17
80323;BME280;69636;52.372;13.610;2023-05-28T03:52:43;101875.03;;;7.97;81.19
80323;BME280;69636;52.372;13.610;2023-05-28T03:55:10;101872.41;;;7.97;81.51
80323;BME280;69636;52.372;13.610;2023-05-28T03:57:37;101881.44;;;8.18;80.62
80323;BME280;69636;52.372;13.610;2023-05-28T04:00:10;101885.66;;;8.21;80.58
80323;BME280;69636;52.372;13.610;2023-05-28T04:02:37;101891.16;;;8.17;80.99
80323;BME280;69636;52.372;13.610;2023-05-28T04:05:07;101882.06;;;8.22;81.54
80323;BME280;69636;52.372;13.610;2023-05-28T04:07:34;101887.31;;;8.34;81.00
80323;BME280;69636;52.372;13.610;2023-05-28T04:10:03;101882.97;;;8.46;80.73
80323;BME280;69636;52.372;13.610;2023-05-28T04:12:31;101880.09;;;8.49;80.95
80323;BME280;69636;52.372;13.610;2023-05-28T04:14:58;101883.19;;;9.02;78.54
80323;BME280;69636;52.372;13.610;2023-05-28T04:17:27;101887.59;;;9.25;77.86
80323;BME280;69636;52.372;13.610;2023-05-28T04:19:54;101876.34;;;8.99;79.54
80323;BME280;69636;52.372;13.610;2023-05-28T04:22:22;101883.44;;;8.99;80.12
80323;BME280;69636;52.372;13.610;2023-05-28T04:24:49;101887.94;;;8.85;80.88
80323;BME280;69636;52.372;13.610;2023-05-28T04:27:16;101882.97;;;9.05;80.94
80323;BME280;69636;52.372;13.610;2023-05-28T04:29:43;101883.50;;;9.21;80.34
80323;BME280;69636;52.372;13.610;2023-05-28T04:32:11;101889.06;;;9.29;80.30
80323;BME280;69636;52.372;13.610;2023-05-28T04:34:40;101889.78;;;9.31;80.49
80323;BME280;69636;52.372;13.610;2023-05-28T04:37:07;101882.69;;;9.43;80.24
80323;BME280;69636;52.372;13.610;2023-05-28T04:39:35;101881.41;;;9.60;79.80
80323;BME280;69636;52.372;13.610;2023-05-28T04:42:03;101879.81;;;9.68;79.89
80323;BME280;69636;52.372;13.610;2023-05-28T04:44:31;101883.06;;;9.94;78.83
80323;BME280;69636;52.372;13.610;2023-05-28T04:46:58;101878.47;;;10.07;79.11
80323;BME280;69636;52.372;13.610;2023-05-28T04:49:26;101877.50;;;10.19;78.81
80323;BME280;69636;52.372;13.610;2023-05-28T04:51:54;101875.09;;;10.39;79.09
80323;BME280;69636;52.372;13.610;2023-05-28T04:54:22;101883.22;;;10.58;78.20
80323;BME280;69636;52.372;13.610;2023-05-28T04:56:49;101880.84;;;10.76;77.99
80323;BME280;69636;52.372;13.610;2023-05-28T04:59:16;101878.16;;;11.08;77.77
80323;BME280;69636;52.372;13.610;2023-05-28T05:01:44;101873.19;;;11.35;77.22
80323;BME280;69636;52.372;13.610;2023-05-28T05:04:11;101875.66;;;11.57;76.83
80323;BME280;69636;52.372;13.610;2023-05-28T05:06:38;101869.22;;;11.81;74.54
80323;BME280;69636;52.372;13.610;2023-05-28T05:09:07;101876.28;;;12.01;73.98
80323;BME280;69636;52.372;13.610;2023-05-28T05:11:34;101869.75;;;12.15;72.97
80323;BME280;69636;52.372;13.610;2023-05-28T05:14:03;101872.19;;;12.37;71.50
80323;BME280;69636;52.372;13.610;2023-05-28T05:16:31;101876.28;;;12.61;72.21
80323;BME280;69636;52.372;13.610;2023-05-28T05:18:58;101877.41;;;12.77;69.82
80323;BME280;69636;52.372;13.610;2023-05-28T05:21:26;101876.97;;;13.01;70.08
80323;BME280;69636;52.372;13.610;2023-05-28T05:23:53;101873.03;;;13.15;69.90
80323;BME280;69636;52.372;13.610;2023-05-28T05:26:22;101872.16;;;13.43;66.78
80323;BME280;69636;52.372;13.610;2023-05-28T05:28:49;101868.53;;;13.44;68.35
80323;BME280;69636;52.372;13.610;2023-05-28T05:31:16;101870.69;;;13.68;65.70
80323;BME280;69636;52.372;13.610;2023-05-28T05:33:44;101868.97;;;13.77;63.49
80323;BME280;69636;52.372;13.610;2023-05-28T05:36:11;101871.63;;;13.77;64.54
80323;BME280;69636;52.372;13.610;2023-05-28T05:38:39;101878.56;;;13.97;63.46
80323;BME280;69636;52.372;13.610;2023-05-28T05:41:06;101876.97;;;14.04;63.23
80323;BME280;69636;52.372;13.610;2023-05-28T05:43:35;101860.47;;;14.36;61.92
80323;BME280;69636;52.372;13.610;2023-05-28T05:46:02;101875.13;;;14.77;60.76
80323;BME280;69636;52.372;13.610;2023-05-28T05:48:30;101863.28;;;14.80;60.47
80323;BME280;69636;52.372;13.610;2023-05-28T05:50:57;101865.09;;;14.97;60.01
80323;BME280;69636;52.372;13.610;2023-05-28T05:53:24;101868.44;;;14.81;57.67
80323;BME280;69636;52.372;13.610;2023-05-28T05:55:52;101865.63;;;15.01;59.05
80323;BME280;69636;52.372;13.610;2023-05-28T05:58:21;101870.97;;;15.01;58.11
80323;BME280;69636;52.372;13.610;2023-05-28T06:00:50;101876.44;;;15.17;57.11
80323;BME280;69636;52.372;13.610;2023-05-28T06:03:17;101877.41;;;15.59;56.23
80323;BME280;69636;52.372;13.610;2023-05-28T06:05:45;101869.63;;;15.48;55.21
80323;BME280;69636;52.372;13.610;2023-05-28T06:08:12;101871.72;;;15.37;55.56
80323;BME280;69636;52.372;13.610;2023-05-28T06:10:39;101874.78;;;15.68;54.69
80323;BME280;69636;52.372;13.610;2023-05-28T06:13:07;101872.69;;;15.53;55.56
80323;BME280;69636;52.372;13.610;2023-05-28T06:15:34;101870.19;;;15.86;52.70
80323;BME280;69636;52.372;13.610;2023-05-28T06:18:03;101871.25;;;16.01;52.83
80323;BME280;69636;52.372;13.610;2023-05-28T06:20:30;101869.69;;;16.33;51.10
80323;BME280;69636;52.372;13.610;2023-05-28T06:22:58;101871.41;;;16.50;50.85
80323;BME280;69636;52.372;13.610;2023-05-28T06:25:25;101862.06;;;16.70;48.78
80323;BME280;69636;52.372;13.610;2023-05-28T06:27:53;101866.78;;;17.09;48.90
80323;BME280;69636;52.372;13.610;2023-05-28T06:30:20;101870.28;;;16.77;47.16
80323;BME280;69636;52.372;13.610;2023-05-28T06:32:47;101870.41;;;16.59;45.52
80323;BME280;69636;52.372;13.610;2023-05-28T06:35:17;101867.59;;;16.93;47.18
80323;BME280;69636;52.372;13.610;2023-05-28T06:37:45;101870.94;;;17.27;44.55
80323;BME280;69636;52.372;13.610;2023-05-28T06:40:13;101865.75;;;17.34;44.39
80323;BME280;69636;52.372;13.610;2023-05-28T06:42:40;101868.03;;;17.61;43.77
80323;BME280;69636;52.372;13.610;2023-05-28T06:45:08;101859.66;;;17.48;43.46
80323;BME280;69636;52.372;13.610;2023-05-28T06:47:35;101865.69;;;17.50;42.69
80323;BME280;69636;52.372;13.610;2023-05-28T06:50:03;101862.50;;;17.55;43.97
80323;BME280;69636;52.372;13.610;2023-05-28T06:52:32;101865.63;;;17.83;40.67
80323;BME280;69636;52.372;13.610;2023-05-28T06:54:59;101868.84;;;17.78;42.21
80323;BME280;69636;52.372;13.610;2023-05-28T06:57:27;101868.03;;;17.61;42.61
80323;BME280;69636;52.372;13.610;2023-05-28T06:59:54;101865.91;;;17.96;43.09
80323;BME280;69636;52.372;13.610;2023-05-28T07:02:21;101872.44;;;18.33;42.16
80323;BME280;69636;52.372;13.610;2023-05-28T07:04:49;101868.19;;;18.15;42.83
80323;BME280;69636;52.372;13.610;2023-05-28T07:07:17;101862.38;;;17.95;41.60
80323;BME280;69636;52.372;13.610;2023-05-28T07:09:46;101865.31;;;18.17;41.89
80323;BME280;69636;52.372;13.610;2023-05-28T07:12:13;101856.38;;;18.47;40.89
80323;BME280;69636;52.372;13.610;2023-05-28T07:14:40;101850.81;;;18.49;42.09
80323;BME280;69636;52.372;13.610;2023-05-28T07:17:10;101849.56;;;18.68;40.60
80323;BME280;69636;52.372;13.610;2023-05-28T07:19:37;101847.13;;;18.50;42.11
80323;BME280;69636;52.372;13.610;2023-05-28T07:22:04;101849.75;;;18.58;39.88
80323;BME280;69636;52.372;13.610;2023-05-28T07:24:32;101848.44;;;18.62;38.84
80323;BME280;69636;52.372;13.610;2023-05-28T07:27:00;101854.81;;;18.84;39.09
80323;BME280;69636;52.372;13.610;2023-05-28T07:29:28;101849.91;;;18.87;39.29
80323;BME280;69636;52.372;13.610;2023-05-28T07:31:55;101852.81;;;18.55;39.81
80323;BME280;69636;52.372;13.610;2023-05-28T07:34:22;101850.72;;;18.42;40.52
80323;BME280;69636;52.372;13.610;2023-05-28T07:36:50;101844.56;;;18.56;39.65
80323;BME280;69636;52.372;13.610;2023-05-28T07:39:17;101842.50;;;18.89;36.07
80323;BME280;69636;52.372;13.610;2023-05-28T07:41:44;101846.69;;;19.07;37.36
80323;BME280;69636;52.372;13.610;2023-05-28T07:44:14;101843.22;;;19.36;35.96
80323;BME280;69636;52.372;13.610;2023-05-28T07:46:41;101848.75;;;19.57;35.15
80323;BME280;69636;52.372;13.610;2023-05-28T07:49:09;101846.28;;;19.18;34.24
80323;BME280;69636;52.372;13.610;2023-05-28T07:51:37;101847.69;;;19.43;32.87
80323;BME280;69636;52.372;13.610;2023-05-28T07:54:04;101836.84;;;19.51;33.63
80323;BME280;69636;52.372;13.610;2023-05-28T07:56:32;101839.25;;;19.76;32.74
80323;BME280;69636;52.372;13.610;2023-05-28T07:58:59;101838.50;;;19.82;32.64
80323;BME280;69636;52.372;13.610;2023-05-28T08:01:28;101839.91;;;19.78;31.66
80323;BME280;69636;52.372;13.610;2023-05-28T08:03:55;101835.09;;;19.58;32.10
80323;BME280;69636;52.372;13.610;2023-05-28T08:06:22;101836.66;;;19.68;31.47
80323;BME280;69636;52.372;13.610;2023-05-28T08:08:50;101836.09;;;19.57;33.49
80323;BME280;69636;52.372;13.610;2023-05-28T08:11:17;101839.06;;;19.92;33.60
80323;BME280;69636;52.372;13.610;2023-05-28T08:13:45;101830.69;;;19.87;30.88
80323;BME280;69636;52.372;13.610;2023-05-28T08:16:12;101829.88;;;19.86;32.27
80323;BME280;69636;52.372;13.610;2023-05-28T08:18:41;101835.50;;;20.06;33.12
80323;BME280;69636;52.372;13.610;2023-05-28T08:21:08;101838.28;;;20.34;33.88
80323;BME280;69636;52.372;13.610;2023-05-28T08:23:35;101835.59;;;20.49;33.00
80323;BME280;69636;52.372;13.610;2023-05-28T08:26:03;101840.88;;;20.78;33.25
80323;BME280;69636;52.372;13.610;2023-05-28T08:28:30;101829.81;;;20.73;31.90
80323;BME280;69636;52.372;13.610;2023-05-28T08:30:57;101827.22;;;20.44;33.60
80323;BME280;69636;52.372;13.610;2023-05-28T08:33:25;101829.47;;;20.61;32.74
80323;BME280;69636;52.372;13.610;2023-05-28T08:35:53;101834.94;;;21.17;32.12
80323;BME280;69636;52.372;13.610;2023-05-28T08:38:21;101834.09;;;21.17;31.75
80323;BME280;69636;52.372;13.610;2023-05-28T08:40:51;101823.69;;;21.14;31.79
80323;BME280;69636;52.372;13.610;2023-05-28T08:43:20;101819.34;;;22.49;29.48
80323;BME280;69636;52.372;13.610;2023-05-28T08:45:50;101823.91;;;23.48;28.55
80323;BME280;69636;52.372;13.610;2023-05-28T08:48:19;101819.91;;;24.53;26.56
80323;BME280;69636;52.372;13.610;2023-05-28T08:50:48;101821.94;;;24.89;25.73
80323;BME280;69636;52.372;13.610;2023-05-28T08:53:20;101817.25;;;25.46;24.52
80323;BME280;69636;52.372;13.610;2023-05-28T08:55:48;101818.09;;;25.64;25.38
80323;BME280;69636;52.372;13.610;2023-05-28T08:58:16;101821.44;;;25.60;25.01
80323;BME280;69636;52.372;13.610;2023-05-28T09:00:44;101815.59;;;26.11;25.23
80323;BME280;69636;52.372;13.610;2023-05-28T09:03:11;101812.53;;;27.26;23.04
80323;BME280;69636;52.372;13.610;2023-05-28T09:05:39;101813.84;;;27.87;22.12
80323;BME280;69636;52.372;13.610;2023-05-28T09:08:08;101810.22;;;26.64;24.04
80323;BME280;69636;52.372;13.610;2023-05-28T09:10:38;101809.19;;;26.89;24.04
80323;BME280;69636;52.372;13.610;2023-05-28T09:13:06;101812.03;;;27.52;21.53
80323;BME280;69636;52.372;13.610;2023-05-28T09:15:34;101807.81;;;27.21;21.33
80323;BME280;69636;52.372;13.610;2023-05-28T09:18:01;101806.69;;;26.76;22.62
80323;BME280;69636;52.372;13.610;2023-05-28T09:20:31;101803.13;;;26.63;22.55
80323;BME280;69636;52.372;13.610;2023-05-28T09:22:59;101791.03;;;26.29;23.05
80323;BME280;69636;52.372;13.610;2023-05-28T09:25:27;101804.75;;;26.53;23.54
80323;BME280;69636;52.372;13.610;2023-05-28T09:27:56;101798.34;;;25.87;24.07
80323;BME280;69636;52.372;13.610;2023-05-28T09:30:25;101793.84;;;26.41;24.27
80323;BME280;69636;52.372;13.610;2023-05-28T09:32:56;101796.00;;;26.21;22.95
80323;BME280;69636;52.372;13.610;2023-05-28T09:35:25;101791.75;;;25.95;24.18
80323;BME280;69636;52.372;13.610;2023-05-28T09:37:59;101789.56;;;25.12;25.74
80323;BME280;69636;52.372;13.610;2023-05-28T09:40:27;101778.03;;;24.04;26.71
80323;BME280;69636;52.372;13.610;2023-05-28T09:42:55;101785.28;;;24.73;25.76
80323;BME280;69636;52.372;13.610;2023-05-28T09:45:24;101774.75;;;25.08;24.13
80323;BME280;69636;52.372;13.610;2023-05-28T09:47:52;101774.19;;;25.43;24.09
80323;BME280;69636;52.372;13.610;2023-05-28T09:50:20;101775.47;;;25.40;24.73
80323;BME280;69636;52.372;13.610;2023-05-28T09:52:47;101771.53;;;25.36;24.39
80323;BME280;69636;52.372;13.610;2023-05-28T09:55:16;101773.19;;;25.92;23.56
80323;BME280;69636;52.372;13.610;2023-05-28T09:57:45;101770.94;;;26.30;23.33
80323;BME280;69636;52.372;13.610;2023-05-28T10:00:20;101765.69;;;26.47;23.19
80323;BME280;69636;52.372;13.610;2023-05-28T10:02:55;101764.41;;;27.20;22.94
80323;BME280;69636;52.372;13.610;2023-05-28T10:05:28;101763.22;;;27.16;23.49
80323;BME280;69636;52.372;13.610;2023-05-28T10:08:00;101760.16;;;27.24;22.77
80323;BME280;69636;52.372;13.610;2023-05-28T10:10:28;101758.06;;;27.54;22.54
80323;BME280;69636;52.372;13.610;2023-05-28T10:12:56;101751.50;;;27.79;21.84
80323;BME280;69636;52.372;13.610;2023-05-28T10:15:26;101758.88;;;27.66;22.85
80323;BME280;69636;52.372;13.610;2023-05-28T10:17:54;101751.69;;;27.49;21.64
80323;BME280;69636;52.372;13.610;2023-05-28T10:20:22;101747.66;;;27.40;21.59
80323;BME280;69636;52.372;13.610;2023-05-28T10:22:50;101746.47;;;27.47;21.52
80323;BME280;69636;52.372;13.610;2023-05-28T10:25:18;101751.59;;;26.85;22.37
80323;BME280;69636;52.372;13.610;2023-05-28T10:27:47;101740.59;;;26.68;22.99
80323;BME280;69636;52.372;13.610;2023-05-28T10:35:33;101742.47;;;26.56;22.92
80323;BME280;69636;52.372;13.610;2023-05-28T10:38:05;101740.56;;;26.57;22.38
80323;BME280;69636;52.372;13.610;2023-05-28T10:40:34;101736.44;;;26.13;22.73
80323;BME280;69636;52.372;13.610;2023-05-28T10:43:01;101740.44;;;25.68;23.09
80323;BME280;69636;52.372;13.610;2023-05-28T10:45:35;101742.50;;;25.85;23.37
80323;BME280;69636;52.372;13.610;2023-05-28T10:48:03;101730.28;;;25.76;23.89
80323;BME280;69636;52.372;13.610;2023-05-28T10:50:32;101734.53;;;26.55;23.29
80323;BME280;69636;52.372;13.610;2023-05-28T10:53:04;101731.59;;;27.26;21.95
80323;BME280;69636;52.372;13.610;2023-05-28T10:55:46;101744.03;;;27.11;22.24
80323;BME280;69636;52.372;13.610;2023-05-28T10:58:22;101742.03;;;27.69;22.18
80323;BME280;69636;52.372;13.610;2023-05-28T11:00:50;101736.94;;;27.10;22.40
80323;BME280;69636;52.372;13.610;2023-05-28T11:03:37;101724.34;;;27.72;21.52
80323;BME280;69636;52.372;13.610;2023-05-28T11:06:07;101731.59;;;27.03;22.33
80323;BME280;69636;52.372;13.610;2023-05-28T11:08:42;101732.56;;;27.60;22.59
80323;BME280;69636;52.372;13.610;2023-05-28T11:11:11;101736.25;;;27.83;21.21
80323;BME280;69636;52.372;13.610;2023-05-28T11:13:46;101731.84;;;28.10;21.29
80323;BME280;69636;52.372;13.610;2023-05-28T11:16:15;101730.31;;;27.86;21.76
80323;BME280;69636;52.372;13.610;2023-05-28T11:19:00;101731.63;;;26.26;23.03
80323;BME280;69636;52.372;13.610;2023-05-28T11:21:29;101732.47;;;27.84;21.94
80323;BME280;69636;52.372;13.610;2023-05-28T11:24:00;101732.47;;;28.62;20.76
80323;BME280;69636;52.372;13.610;2023-05-28T11:26:28;101730.53;;;28.13;21.30
80323;BME280;69636;52.372;13.610;2023-05-28T11:28:55;101727.41;;;27.76;21.01
80323;BME280;69636;52.372;13.610;2023-05-28T11:31:23;101724.63;;;28.32;21.45
80323;BME280;69636;52.372;13.610;2023-05-28T11:33:51;101723.31;;;28.52;21.00
80323;BME280;69636;52.372;13.610;2023-05-28T11:36:19;101724.34;;;28.17;20.65
80323;BME280;69636;52.372;13.610;2023-05-28T11:39:00;101723.19;;;28.13;20.86
80323;BME280;69636;52.372;13.610;2023-05-28T11:41:27;101720.09;;;28.10;21.21
80323;BME280;69636;52.372;13.610;2023-05-28T11:44:19;101717.41;;;28.60;20.00
80323;BME280;69636;52.372;13.610;2023-05-28T11:46:49;101715.75;;;28.76;20.71
80323;BME280;69636;52.372;13.610;2023-05-28T11:49:17;101707.88;;;28.96;20.40
80323;BME280;69636;52.372;13.610;2023-05-28T11:51:48;101701.97;;;29.26;19.66
80323;BME280;69636;52.372;13.610;2023-05-28T11:54:18;101708.69;;;28.96;19.90
80323;BME280;69636;52.372;13.610;2023-05-28T11:56:47;101698.00;;;28.56;20.73
80323;BME280;69636;52.372;13.610;2023-05-28T11:59:17;101694.28;;;29.01;19.72
80323;BME280;69636;52.372;13.610;2023-05-28T12:01:44;101686.56;;;28.43;20.25
80323;BME280;69636;52.372;13.610;2023-05-28T12:04:12;101691.53;;;27.84;21.43
80323;BME280;69636;52.372;13.610;2023-05-28T12:06:50;101690.13;;;27.13;22.13
80323;BME280;69636;52.372;13.610;2023-05-28T12:09:19;101688.66;;;28.07;21.50
80323;BME280;69636;52.372;13.610;2023-05-28T12:12:01;101677.25;;;28.10;21.69
80323;BME280;69636;52.372;13.610;2023-05-28T12:14:29;101677.13;;;28.33;20.76
80323;BME280;69636;52.372;13.610;2023-05-28T12:17:04;101662.84;;;27.13;22.24
80323;BME280;69636;52.372;13.610;2023-05-28T12:19:32;101665.03;;;27.39;21.85
80323;BME280;69636;52.372;13.610;2023-05-28T12:21:59;101667.06;;;27.72;21.08
80323;BME280;69636;52.372;13.610;2023-05-28T12:24:28;101661.41;;;28.41;20.69
80323;BME280;69636;52.372;13.610;2023-05-28T12:26:56;101654.63;;;28.43;20.75
80323;BME280;69636;52.372;13.610;2023-05-28T12:29:23;101652.28;;;28.52;20.19
80323;BME280;69636;52.372;13.610;2023-05-28T12:31:57;101650.19;;;28.59;20.14
80323;BME280;69636;52.372;13.610;2023-05-28T12:34:25;101645.75;;;28.91;20.53
80323;BME280;69636;52.372;13.610;2023-05-28T12:36:52;101657.66;;;27.96;20.94
80323;BME280;69636;52.372;13.610;2023-05-28T12:39:19;101646.72;;;28.13;20.43
80323;BME280;69636;52.372;13.610;2023-05-28T12:41:48;101651.66;;;28.28;22.21
80323;BME280;69636;52.372;13.610;2023-05-28T12:44:15;101650.69;;;27.89;21.37
80323;BME280;69636;52.372;13.610;2023-05-28T12:46:43;101645.50;;;28.54;19.85
80323;BME280;69636;52.372;13.610;2023-05-28T12:49:10;101651.34;;;28.63;20.99
80323;BME280;69636;52.372;13.610;2023-05-28T12:51:37;101649.97;;;28.99;19.46
80323;BME280;69636;52.372;13.610;2023-05-28T12:56:32;101647.53;;;28.25;20.41